Grand Canyon Natl Park, Arizona
Current Conditions -  °F | °C
As of 6:54 PM on Friday 21 Nov 2014 (Local Time) from KGCN Reporting Station
Clear Clear  
Wind Chill: 26°   Ceiling: Unl
Heat Index: 26°   Visibility: 10mi
Dew Point: 11°   Wind: 3mph
Humidity: 53%   Direction: 50°NE
Pressure: 30.08"   Gusts: NA
Location:  36.2°N, 112.07°W
Report Text: KGCN 220154Z 05003KT 10SM CLR M03/M12 A3008 RMK AO2 SLP199 T10331117
Loading
Personal Weather Stations






























Interactive Weather Map New forecast layout! Learn more

10-Day Weather Forecast

Advertisements
Track Severe Weather on mobile